Time,TemperatureF,DewpointF,PressureIn,WindDirection,WindDirectionDegrees,WindSpeedMPH,WindSpeedGustMPH,Humidity,HourlyPrecipIn,Conditions,Clouds,dailyrainin,SoftwareType,DateUTC
2013-01-02 00:01:00,77.2,48.9,29.12,West,270,0.0,0.0,37,0.00,CLR,,0.00,WeatherDisplay:10.37,2013-01-01 13:01:00,
2013-01-02 00:06:00,77.0,48.7,29.15,West,270,0.0,0.0,37,0.00,CLR,,0.00,WeatherDisplay:10.37,2013-01-01 13:06:00,
2013-01-02 00:11:00,76.8,49.3,29.15,WSW,248,0.0,0.0,38,0.00,CLR,,0.00,WeatherDisplay:10.37,2013-01-01 13:11:00,
2013-01-02 00:16:00,76.5,49.0,29.15,West,270,0.0,0.0,38,0.00,CLR,,0.00,WeatherDisplay:10.37,2013-01-01 13:16:00,
2013-01-02 00:21:00,76.1,48.6,29.15,South,180,0.0,0.0,38,0.00,CLR,,0.00,WeatherDisplay:10.37,2013-01-01 13:21:00,
2013-01-02 00:26:00,75.9,49.2,29.15,ENE,68,0.0,0.0,39,0.00,CLR,,0.00,WeatherDisplay:10.37,2013-01-01 13:26:00,
2013-01-02 00:31:00,75.6,49.5,29.15,SE,135,0.0,0.0,40,0.00,CLR,,0.00,WeatherDisplay:10.37,2013-01-01 13:31:00,
2013-01-02 00:36:00,75.4,49.4,29.15,SSW,202,0.0,0.0,40,0.00,CLR,,0.00,WeatherDisplay:10.37,2013-01-01 13:36:00,
2013-01-02 00:41:00,75.2,49.9,29.15,WSW,248,0.0,0.0,41,0.00,CLR,,0.00,WeatherDisplay:10.37,2013-01-01 13:41:00,
2013-01-02 00:46:00,75.0,49.7,29.15,SSW,202,0.0,0.0,41,0.00,CLR,,0.00,WeatherDisplay:10.37,2013-01-01 13:46:00,
2013-01-02 00:51:00,74.8,50.2,29.15,ESE,112,0.0,0.0,42,0.00,CLR,,0.00,WeatherDisplay:10.37,2013-01-01 13:51:00,
2013-01-02 00:56:00,74.5,49.9,29.15,North,0,0.0,0.0,42,0.00,CLR,,0.00,WeatherDisplay:10.37,2013-01-01 13:56:00,
2013-01-02 01:01:00,74.3,49.7,29.15,North,0,0.0,0.0,42,0.00,CLR,,0.00,WeatherDisplay:10.37,2013-01-01 14:01:00,
2013-01-02 01:06:00,73.9,50.0,29.15,NNW,338,0.0,0.0,43,0.00,CLR,,0.00,WeatherDisplay:10.37,2013-01-01 14:06:00,
2013-01-02 01:11:00,73.9,50.0,29.15,WSW,248,0.0,0.0,43,0.00,CLR,,0.00,WeatherDisplay:10.37,2013-01-01 14:11:00,
2013-01-02 01:16:00,73.8,49.9,29.15,WSW,248,0.0,0.0,43,0.00,CLR,,0.00,WeatherDisplay:10.37,2013-01-01 14:16:00,
2013-01-02 01:21:00,73.6,50.3,29.15,WSW,248,0.0,0.0,44,0.00,CLR,,0.00,WeatherDisplay:10.37,2013-01-01 14:21:00,
2013-01-02 01:26:00,73.6,50.3,29.15,SW,225,0.0,0.0,44,0.00,CLR,,0.00,WeatherDisplay:10.37,2013-01-01 14:26:00,
2013-01-02 01:31:00,73.4,50.2,29.15,SW,225,0.0,0.0,44,0.00,CLR,,0.00,WeatherDisplay:10.37,2013-01-01 14:31:00,
2013-01-02 01:36:00,73.0,49.8,29.15,SW,225,0.0,0.0,44,0.00,CLR,,0.00,WeatherDisplay:10.37,2013-01-01 14:36:00,
2013-01-02 01:41:00,72.9,50.3,29.15,SW,225,0.0,0.0,45,0.00,CLR,,0.00,WeatherDisplay:10.37,2013-01-01 14:41:00,
2013-01-02 01:46:00,72.7,50.7,29.15,WSW,248,0.0,0.0,46,0.00,CLR,,0.00,WeatherDisplay:10.37,2013-01-01 14:46:00,
2013-01-02 01:51:00,72.5,49.9,29.15,WSW,248,0.0,0.0,45,0.00,CLR,,0.00,WeatherDisplay:10.37,2013-01-01 14:51:00,
2013-01-02 01:56:00,72.3,49.8,29.15,SE,135,0.0,0.0,45,0.00,CLR,,0.00,WeatherDisplay:10.37,2013-01-01 14:56:00,
2013-01-02 02:01:00,72.1,50.2,29.15,SE,135,0.0,0.0,46,0.00,CLR,,0.00,WeatherDisplay:10.37,2013-01-01 15:01:00,
2013-01-02 02:06:00,72.0,50.0,29.12,SE,135,0.0,0.0,46,0.00,CLR,,0.00,WeatherDisplay:10.37,2013-01-01 15:06:00,
2013-01-02 02:11:00,71.8,49.9,29.12,SE,135,0.0,0.0,46,0.00,CLR,,0.00,WeatherDisplay:10.37,2013-01-01 15:11:00,
2013-01-02 02:16:00,71.6,50.3,29.12,West,270,0.0,0.0,47,0.00,CLR,,0.00,WeatherDisplay:10.37,2013-01-01 15:16:00,
2013-01-02 02:21:00,71.6,50.3,29.15,WSW,248,0.0,0.0,47,0.00,CLR,,0.00,WeatherDisplay:10.37,2013-01-01 15:21:00,
2013-01-02 02:26:00,71.4,50.1,29.15,WSW,248,0.0,0.0,47,0.00,CLR,,0.00,WeatherDisplay:10.37,2013-01-01 15:26:00,
2013-01-02 02:31:00,71.2,50.5,29.15,WSW,248,0.0,0.0,48,0.00,CLR,,0.00,WeatherDisplay:10.37,2013-01-01 15:31:00,
2013-01-02 02:36:00,71.1,50.9,29.15,WSW,248,0.0,0.0,49,0.00,CLR,,0.00,WeatherDisplay:10.37,2013-01-01 15:36:00,
2013-01-02 02:41:00,71.1,50.9,29.15,WSW,248,0.0,0.0,49,0.00,CLR,,0.00,WeatherDisplay:10.37,2013-01-01 15:41:00,
2013-01-02 02:46:00,70.9,50.8,29.15,WSW,248,0.0,0.0,49,0.00,CLR,,0.00,WeatherDisplay:10.37,2013-01-01 15:46:00,
2013-01-02 02:51:00,70.9,50.8,29.15,SW,225,0.0,0.0,49,0.00,CLR,,0.00,WeatherDisplay:10.37,2013-01-01 15:51:00,
2013-01-02 02:56:00,70.5,50.4,29.15,SE,135,0.0,0.0,49,0.00,CLR,,0.00,WeatherDisplay:10.37,2013-01-01 15:56:00,
2013-01-02 03:01:00,70.3,50.8,29.15,NNW,338,0.0,0.0,50,0.00,CLR,,0.00,WeatherDisplay:10.37,2013-01-01 16:01:00,
2013-01-02 03:06:00,70.2,50.6,29.15,ESE,112,0.0,0.0,50,0.00,CLR,,0.00,WeatherDisplay:10.37,2013-01-01 16:06:00,
2013-01-02 03:11:00,70.0,50.5,29.15,SE,135,0.0,0.0,50,0.00,CLR,,0.00,WeatherDisplay:10.37,2013-01-01 16:11:00,
2013-01-02 03:16:00,69.8,50.9,29.15,SW,225,0.0,0.0,51,0.00,CLR,,0.00,WeatherDisplay:10.37,2013-01-01 16:16:00,
2013-01-02 03:21:00,70.0,51.0,29.15,West,270,2.0,2.0,51,0.00,CLR,,0.00,WeatherDisplay:10.37,2013-01-01 16:21:00,
2013-01-02 03:26:00,70.0,51.5,29.15,West,270,4.6,4.6,52,0.00,CLR,,0.00,WeatherDisplay:10.37,2013-01-01 16:26:00,
2013-01-02 03:31:00,69.6,51.7,29.20,West,270,0.0,0.0,53,0.00,CLR,,0.00,WeatherDisplay:10.37,2013-01-01 16:31:00,
2013-01-02 03:36:00,69.6,51.7,29.20,WSW,248,0.0,0.0,53,0.00,CLR,,0.00,WeatherDisplay:10.37,2013-01-01 16:36:00,
2013-01-02 03:41:00,69.6,51.7,29.20,WSW,248,0.0,0.0,53,0.00,CLR,,0.00,WeatherDisplay:10.37,2013-01-01 16:41:00,
2013-01-02 03:46:00,69.6,52.2,29.20,West,270,0.0,0.0,54,0.00,CLR,,0.00,WeatherDisplay:10.37,2013-01-01 16:46:00,
2013-01-02 03:51:00,69.6,52.2,29.20,WSW,248,0.0,0.0,54,0.00,CLR,,0.00,WeatherDisplay:10.37,2013-01-01 16:51:00,
2013-01-02 03:56:00,69.6,52.7,29.20,East,90,0.0,0.0,55,0.00,CLR,,0.00,WeatherDisplay:10.37,2013-01-01 16:56:00,
2013-01-02 04:01:00,69.4,52.6,29.20,ENE,68,0.0,0.0,55,0.00,CLR,,0.00,WeatherDisplay:10.37,2013-01-01 17:01:00,
2013-01-02 04:06:00,69.3,52.4,29.20,SSW,202,0.0,0.0,55,0.00,CLR,,0.00,WeatherDisplay:10.37,2013-01-01 17:06:00,
2013-01-02 04:11:00,69.3,52.4,29.20,West,270,0.0,0.0,55,0.00,CLR,,0.00,WeatherDisplay:10.37,2013-01-01 17:11:00,
2013-01-02 04:16:00,69.4,54.0,29.20,WNW,292,3.5,3.5,58,0.00,CLR,,0.00,WeatherDisplay:10.37,2013-01-01 17:16:00,
2013-01-02 04:21:00,69.4,55.4,29.20,WNW,292,0.0,0.0,61,0.00,CLR,,0.00,WeatherDisplay:10.37,2013-01-01 17:21:00,
2013-01-02 04:27:00,69.4,55.4,29.20,WNW,292,4.6,4.6,61,0.00,CLR,,0.00,WeatherDisplay:10.37,2013-01-01 17:27:00,
2013-01-02 04:32:00,69.6,56.0,29.20,West,270,4.6,4.6,62,0.00,CLR,,0.00,WeatherDisplay:10.37,2013-01-01 17:32:00,
2013-01-02 04:37:00,69.6,56.9,29.20,NNW,338,4.6,4.6,64,0.00,CLR,,0.00,WeatherDisplay:10.37,2013-01-01 17:37:00,
2013-01-02 04:42:00,69.6,56.9,29.20,WNW,292,4.6,4.6,64,0.00,CLR,,0.00,WeatherDisplay:10.37,2013-01-01 17:42:00,
2013-01-02 04:47:00,69.8,56.6,29.24,WNW,292,4.6,4.6,63,0.00,CLR,,0.00,WeatherDisplay:10.37,2013-01-01 17:47:00,
2013-01-02 04:52:00,70.0,56.8,29.24,West,270,2.3,2.3,63,0.00,CLR,,0.00,WeatherDisplay:10.37,2013-01-01 17:52:00,
2013-01-02 04:57:00,70.0,56.8,29.24,WNW,292,4.6,4.6,63,0.00,CLR,,0.00,WeatherDisplay:10.37,2013-01-01 17:57:00,
2013-01-02 05:02:00,70.2,57.4,29.26,WSW,248,3.3,3.3,64,0.00,CLR,,0.00,WeatherDisplay:10.37,2013-01-01 18:02:00,
2013-01-02 05:07:00,70.2,57.4,29.26,West,270,3.5,3.5,64,0.00,CLR,,0.00,WeatherDisplay:10.37,2013-01-01 18:07:00,
2013-01-02 05:12:00,70.2,57.8,29.26,West,270,0.0,0.0,65,0.00,CLR,,0.00,WeatherDisplay:10.37,2013-01-01 18:12:00,
2013-01-02 05:17:00,70.3,58.0,29.24,West,270,0.0,0.0,65,0.00,CLR,,0.00,WeatherDisplay:10.37,2013-01-01 18:17:00,
2013-01-02 05:22:00,70.3,58.0,29.24,West,270,0.0,0.0,65,0.00,CLR,,0.00,WeatherDisplay:10.37,2013-01-01 18:22:00,
2013-01-02 05:27:00,70.3,58.0,29.24,West,270,0.0,0.0,65,0.00,CLR,,0.00,WeatherDisplay:10.37,2013-01-01 18:27:00,
2013-01-02 05:32:00,70.3,58.0,29.26,West,270,0.0,0.0,65,0.00,CLR,,0.00,WeatherDisplay:10.37,2013-01-01 18:32:00,
2013-01-02 05:37:00,70.5,58.2,29.26,WNW,292,0.0,0.0,65,0.00,CLR,,0.00,WeatherDisplay:10.37,2013-01-01 18:37:00,
2013-01-02 05:42:00,70.5,58.2,29.26,West,270,0.0,0.0,65,0.00,CLR,,0.00,WeatherDisplay:10.37,2013-01-01 18:42:00,
2013-01-02 05:47:00,70.7,58.4,29.26,WNW,292,0.0,0.0,65,0.00,CLR,,0.00,WeatherDisplay:10.37,2013-01-01 18:47:00,
2013-01-02 05:52:00,70.7,58.8,29.26,West,270,0.0,0.0,66,0.00,CLR,,0.00,WeatherDisplay:10.37,2013-01-01 18:52:00,
2013-01-02 05:57:00,70.9,59.0,29.26,West,270,0.0,0.0,66,0.00,CLR,,0.00,WeatherDisplay:10.37,2013-01-01 18:57:00,
2013-01-02 06:02:00,70.9,58.5,29.29,WSW,248,0.0,0.0,65,0.00,CLR,,0.00,WeatherDisplay:10.37,2013-01-01 19:02:00,
2013-01-02 06:07:00,71.1,58.7,29.29,NW,315,1.2,1.2,65,0.00,CLR,,0.00,WeatherDisplay:10.37,2013-01-01 19:07:00,
2013-01-02 06:12:00,71.1,58.7,29.29,West,270,0.0,0.0,65,0.00,CLR,,0.00,WeatherDisplay:10.37,2013-01-01 19:12:00,
2013-01-02 06:17:00,71.2,58.9,29.29,WNW,292,1.4,0.0,65,0.00,CLR,,0.00,WeatherDisplay:10.37,2013-01-01 19:17:00,
2013-01-02 06:22:00,71.2,58.9,29.29,WNW,292,0.0,0.0,65,0.00,CLR,,0.00,WeatherDisplay:10.37,2013-01-01 19:22:00,
2013-01-02 06:27:00,71.4,59.0,29.29,WNW,292,2.4,0.0,65,0.00,CLR,,0.00,WeatherDisplay:10.37,2013-01-01 19:27:00,
2013-01-02 06:32:00,71.4,58.6,29.32,WNW,292,2.3,2.6,64,0.00,CLR,,0.00,WeatherDisplay:10.37,2013-01-01 19:32:00,
2013-01-02 06:37:00,71.6,59.2,29.32,West,270,1.2,0.0,65,0.00,CLR,,0.00,WeatherDisplay:10.37,2013-01-01 19:37:00,
2013-01-02 06:42:00,71.8,58.9,29.32,West,270,2.3,0.0,64,0.00,CLR,,0.00,WeatherDisplay:10.37,2013-01-01 19:42:00,
2013-01-02 06:47:00,71.8,58.9,29.32,NW,315,2.3,2.3,64,0.00,CLR,,0.00,WeatherDisplay:10.37,2013-01-01 19:47:00,
2013-01-02 06:52:00,72.0,59.1,29.32,WNW,292,0.0,0.0,64,0.00,CLR,,0.00,WeatherDisplay:10.37,2013-01-01 19:52:00,
2013-01-02 06:57:00,72.0,59.1,29.32,West,270,0.0,0.0,64,0.00,CLR,,0.00,WeatherDisplay:10.37,2013-01-01 19:57:00,
2013-01-02 07:02:00,72.0,59.1,29.32,West,270,2.3,2.3,64,0.00,CLR,,0.00,WeatherDisplay:10.37,2013-01-01 20:02:00,
2013-01-02 07:07:00,72.3,59.0,29.32,West,270,2.3,0.0,63,0.00,CLR,,0.00,WeatherDisplay:10.37,2013-01-01 20:07:00,
2013-01-02 07:12:00,72.5,59.6,29.32,WNW,292,1.2,0.0,64,0.00,CLR,,0.00,WeatherDisplay:10.37,2013-01-01 20:12:00,
2013-01-02 07:17:00,72.7,60.2,29.32,WNW,292,0.0,0.0,65,0.00,CLR,,0.00,WeatherDisplay:10.37,2013-01-01 20:17:00,
2013-01-02 07:22:00,72.9,60.0,29.32,WNW,292,0.0,0.0,64,0.00,CLR,,0.00,WeatherDisplay:10.37,2013-01-01 20:22:00,
2013-01-02 07:27:00,73.0,60.6,29.32,NE,45,0.0,0.0,65,0.00,CLR,,0.00,WeatherDisplay:10.37,2013-01-01 20:27:00,
2013-01-02 07:32:00,73.0,60.6,29.32,East,90,0.0,0.0,65,0.00,CLR,,0.00,WeatherDisplay:10.37,2013-01-01 20:32:00,
2013-01-02 07:37:00,73.0,60.1,29.32,WSW,248,0.0,0.0,64,0.00,CLR,,0.00,WeatherDisplay:10.37,2013-01-01 20:37:00,
2013-01-02 07:42:00,73.2,60.7,29.32,NNE,22,0.0,0.0,65,0.00,CLR,,0.00,WeatherDisplay:10.37,2013-01-01 20:42:00,
2013-01-02 07:47:00,73.2,60.7,29.32,NE,45,0.0,0.0,65,0.00,CLR,,0.00,WeatherDisplay:10.37,2013-01-01 20:47:00,
2013-01-02 07:52:00,73.0,60.6,29.32,NE,45,0.0,0.0,65,0.00,CLR,,0.00,WeatherDisplay:10.37,2013-01-01 20:52:00,
2013-01-02 07:57:00,73.0,60.6,29.32,NNW,338,0.0,0.0,65,0.00,CLR,,0.00,WeatherDisplay:10.37,2013-01-01 20:57:00,
2013-01-02 08:02:00,73.0,60.6,29.32,NNE,22,0.0,0.0,65,0.00,CLR,,0.00,WeatherDisplay:10.37,2013-01-01 21:02:00,
2013-01-02 08:07:00,73.2,60.7,29.32,NW,315,0.0,0.0,65,0.00,CLR,,0.00,WeatherDisplay:10.37,2013-01-01 21:07:00,
2013-01-02 08:12:00,73.6,60.6,29.32,East,90,0.0,0.0,64,0.00,CLR,,0.00,WeatherDisplay:10.37,2013-01-01 21:12:00,
2013-01-02 08:17:00,73.8,60.8,29.32,NNW,338,0.0,0.0,64,0.00,CLR,,0.00,WeatherDisplay:10.37,2013-01-01 21:17:00,
2013-01-02 08:22:00,73.8,60.8,29.32,NNE,22,0.0,0.0,64,0.00,CLR,,0.00,WeatherDisplay:10.37,2013-01-01 21:22:00,
2013-01-02 08:27:00,73.9,60.5,29.32,WSW,248,0.0,0.0,63,0.00,CLR,,0.00,WeatherDisplay:10.37,2013-01-01 21:27:00,
2013-01-02 08:32:00,73.9,60.1,29.35,SSE,158,2.2,0.0,62,0.00,CLR,,0.00,WeatherDisplay:10.37,2013-01-01 21:32:00,
2013-01-02 08:37:00,74.1,59.8,29.35,SE,135,1.4,1.4,61,0.00,CLR,,0.00,WeatherDisplay:10.37,2013-01-01 21:37:00,
2013-01-02 08:42:00,74.1,59.8,29.35,NE,45,2.3,2.3,61,0.00,CLR,,0.00,WeatherDisplay:10.37,2013-01-01 21:42:00,
2013-01-02 08:47:00,74.3,60.0,29.35,NNE,22,0.0,0.0,61,0.00,CLR,,0.00,WeatherDisplay:10.37,2013-01-01 21:47:00,
2013-01-02 08:52:00,74.7,60.3,29.35,NE,45,0.0,0.0,61,0.00,CLR,,0.00,WeatherDisplay:10.37,2013-01-01 21:52:00,
2013-01-02 08:57:00,74.8,60.5,29.35,NNE,22,2.3,2.3,61,0.00,CLR,,0.00,WeatherDisplay:10.37,2013-01-01 21:57:00,
2013-01-02 09:02:00,75.2,60.4,29.32,NE,45,1.4,0.0,60,0.00,CLR,,0.00,WeatherDisplay:10.37,2013-01-01 22:02:00,
2013-01-02 09:07:00,76.6,61.7,29.32,ENE,68,2.3,2.3,60,0.00,CLR,,0.00,WeatherDisplay:10.37,2013-01-01 22:07:00,
2013-01-02 09:12:00,78.1,62.1,29.32,ENE,68,2.3,2.3,58,0.00,CLR,,0.00,WeatherDisplay:10.37,2013-01-01 22:12:00,
2013-01-02 09:17:00,79.5,62.4,29.32,ENE,68,2.6,2.6,56,0.00,CLR,,0.00,WeatherDisplay:10.37,2013-01-01 22:17:00,
2013-01-02 09:22:00,80.4,62.8,29.32,ENE,68,2.3,2.3,55,0.00,CLR,,0.00,WeatherDisplay:10.37,2013-01-01 22:22:00,
2013-01-02 09:27:00,81.5,62.7,29.32,NE,45,2.4,2.4,53,0.00,CLR,,0.00,WeatherDisplay:10.37,2013-01-01 22:27:00,
2013-01-02 09:32:00,82.0,62.1,29.32,ENE,68,4.6,4.6,51,0.00,CLR,,0.00,WeatherDisplay:10.37,2013-01-01 22:32:00,
2013-01-02 09:37:00,82.9,61.8,29.32,NE,45,2.4,2.4,49,0.00,CLR,,0.00,WeatherDisplay:10.37,2013-01-01 22:37:00,
2013-01-02 09:42:00,83.8,62.1,29.32,ENE,68,3.5,3.5,48,0.00,CLR,,0.00,WeatherDisplay:10.37,2013-01-01 22:42:00,
2013-01-02 09:47:00,84.6,62.1,29.32,North,0,4.6,4.6,47,0.00,CLR,,0.00,WeatherDisplay:10.37,2013-01-01 22:47:00,
2013-01-02 09:52:00,84.6,60.9,29.32,ENE,68,3.5,3.5,45,0.00,CLR,,0.00,WeatherDisplay:10.37,2013-01-01 22:52:00,
2013-01-02 09:57:00,84.7,61.0,29.32,NNE,22,4.6,4.6,45,0.00,CLR,,0.00,WeatherDisplay:10.37,2013-01-01 22:57:00,
2013-01-02 10:02:00,85.5,61.1,29.32,NE,45,4.6,4.6,44,0.00,CLR,,0.00,WeatherDisplay:10.37,2013-01-01 23:02:00,
2013-01-02 10:07:00,85.6,61.2,29.32,NE,45,3.5,3.5,44,0.00,CLR,,0.00,WeatherDisplay:10.37,2013-01-01 23:07:00,
2013-01-02 10:12:00,86.4,61.2,29.32,East,90,3.5,3.5,43,0.00,CLR,,0.00,WeatherDisplay:10.37,2013-01-01 23:12:00,
2013-01-02 10:17:00,87.1,61.9,29.32,ENE,68,2.9,2.9,43,0.00,CLR,,0.00,WeatherDisplay:10.37,2013-01-01 23:17:00,
2013-01-02 10:22:00,87.6,62.4,29.32,North,0,2.4,2.4,43,0.00,CLR,,0.00,WeatherDisplay:10.37,2013-01-01 23:22:00,
2013-01-02 10:27:00,87.6,61.7,29.32,East,90,3.3,3.3,42,0.00,CLR,,0.00,WeatherDisplay:10.37,2013-01-01 23:27:00,
2013-01-02 10:32:00,88.0,61.3,29.32,NE,45,3.5,3.5,41,0.00,CLR,,0.00,WeatherDisplay:10.37,2013-01-01 23:32:00,
2013-01-02 10:37:00,87.8,60.5,29.32,West,270,1.2,0.0,40,0.00,CLR,,0.00,WeatherDisplay:10.37,2013-01-01 23:37:00,
2013-01-02 10:42:00,88.7,61.3,29.32,East,90,3.5,3.5,40,0.00,CLR,,0.00,WeatherDisplay:10.37,2013-01-01 23:42:00,
2013-01-02 10:47:00,88.3,61.0,29.29,NNE,22,3.5,3.5,40,0.00,CLR,,0.00,WeatherDisplay:10.37,2013-01-01 23:47:00,
2013-01-02 10:52:00,88.0,60.6,29.29,NE,45,4.6,4.6,40,0.00,CLR,,0.00,WeatherDisplay:10.37,2013-01-01 23:52:00,
2013-01-02 10:57:00,88.9,61.4,29.29,ESE,112,3.5,3.5,40,0.00,CLR,,0.00,WeatherDisplay:10.37,2013-01-01 23:57:00,
2013-01-02 11:02:00,89.6,61.4,29.29,NE,45,1.2,0.0,39,0.00,CLR,,0.00,WeatherDisplay:10.37,2013-01-02 00:02:00,
2013-01-02 11:07:00,88.2,60.1,29.29,ENE,68,3.5,3.5,39,0.00,CLR,,0.00,WeatherDisplay:10.37,2013-01-02 00:07:00,
2013-01-02 11:12:00,86.4,58.5,29.29,East,90,3.5,3.5,39,0.00,CLR,,0.00,WeatherDisplay:10.37,2013-01-02 00:12:00,
2013-01-02 11:17:00,86.7,59.5,29.29,East,90,4.6,4.6,40,0.00,CLR,,0.00,WeatherDisplay:10.37,2013-01-02 00:17:00,
2013-01-02 11:22:00,86.4,59.2,29.29,ENE,68,2.0,2.0,40,0.00,CLR,,0.00,WeatherDisplay:10.37,2013-01-02 00:22:00,
2013-01-02 11:27:00,85.6,59.2,29.29,NNE,22,5.4,5.4,41,0.00,CLR,,0.00,WeatherDisplay:10.37,2013-01-02 00:27:00,
2013-01-02 11:32:00,86.5,60.0,29.29,ENE,68,2.6,2.6,41,0.00,CLR,,0.00,WeatherDisplay:10.37,2013-01-02 00:32:00,
2013-01-02 11:37:00,88.2,60.8,29.29,SE,135,2.3,2.3,40,0.00,CLR,,0.00,WeatherDisplay:10.37,2013-01-02 00:37:00,
2013-01-02 11:42:00,88.5,61.1,29.29,SE,135,4.6,4.6,40,0.00,CLR,,0.00,WeatherDisplay:10.37,2013-01-02 00:42:00,
2013-01-02 11:47:00,86.4,59.2,29.29,ESE,112,4.9,4.9,40,0.00,CLR,,0.00,WeatherDisplay:10.37,2013-01-02 00:47:00,
2013-01-02 11:52:00,84.7,58.4,29.29,SE,135,3.5,3.5,41,0.00,CLR,,0.00,WeatherDisplay:10.37,2013-01-02 00:52:00,
2013-01-02 11:57:00,85.1,58.8,29.29,North,0,2.6,2.6,41,0.00,CLR,,0.00,WeatherDisplay:10.37,2013-01-02 00:57:00,
2013-01-02 12:02:00,85.5,59.8,29.29,NNE,22,4.6,4.6,42,0.00,CLR,,0.00,WeatherDisplay:10.37,2013-01-02 01:02:00,
2013-01-02 12:07:00,84.6,58.3,29.29,NE,45,4.6,4.9,41,0.00,CLR,,0.00,WeatherDisplay:10.37,2013-01-02 01:07:00,
2013-01-02 12:12:00,83.5,58.0,29.29,East,90,3.5,3.5,42,0.00,CLR,,0.00,WeatherDisplay:10.37,2013-01-02 01:12:00,
2013-01-02 12:17:00,83.5,58.6,29.29,ENE,68,2.9,2.9,43,0.00,CLR,,0.00,WeatherDisplay:10.37,2013-01-02 01:17:00,
2013-01-02 12:22:00,84.4,59.4,29.29,ENE,68,4.6,4.6,43,0.00,CLR,,0.00,WeatherDisplay:10.37,2013-01-02 01:22:00,
2013-01-02 12:27:00,86.9,61.7,29.29,North,0,4.6,4.6,43,0.00,CLR,,0.00,WeatherDisplay:10.37,2013-01-02 01:27:00,
2013-01-02 12:32:00,86.2,60.4,29.29,East,90,2.4,2.4,42,0.00,CLR,,0.00,WeatherDisplay:10.37,2013-01-02 01:32:00,
2013-01-02 12:37:00,85.3,59.6,29.29,SE,135,6.2,6.2,42,0.00,CLR,,0.00,WeatherDisplay:10.37,2013-01-02 01:37:00,
2013-01-02 12:42:00,84.4,58.8,29.29,NE,45,4.6,4.6,42,0.00,CLR,,0.00,WeatherDisplay:10.37,2013-01-02 01:42:00,
2013-01-02 12:47:00,84.4,59.4,29.26,East,90,3.8,3.8,43,0.00,CLR,,0.00,WeatherDisplay:10.37,2013-01-02 01:47:00,
2013-01-02 12:52:00,83.7,59.4,29.26,ENE,68,5.8,5.8,44,0.00,CLR,,0.00,WeatherDisplay:10.37,2013-01-02 01:52:00,
2013-01-02 12:57:00,82.8,58.6,29.26,ENE,68,5.8,5.8,44,0.00,CLR,,0.00,WeatherDisplay:10.37,2013-01-02 01:57:00,
2013-01-02 13:02:00,83.1,59.6,29.29,ENE,68,5.8,0.0,45,0.00,CLR,,0.00,WeatherDisplay:10.37,2013-01-02 02:02:00,
2013-01-02 13:07:00,85.5,61.1,29.29,SSE,158,4.7,4.7,44,0.00,CLR,,0.00,WeatherDisplay:10.37,2013-01-02 02:07:00,
2013-01-02 13:12:00,85.3,60.3,29.29,ENE,68,5.8,5.8,43,0.00,CLR,,0.00,WeatherDisplay:10.37,2013-01-02 02:12:00,
2013-01-02 13:17:00,84.9,59.9,29.29,NE,45,6.9,6.9,43,0.00,CLR,,0.00,WeatherDisplay:10.37,2013-01-02 02:17:00,
2013-01-02 13:22:00,84.6,59.6,29.29,SE,135,3.6,3.6,43,0.00,CLR,,0.00,WeatherDisplay:10.37,2013-01-02 02:22:00,
2013-01-02 13:27:00,86.9,61.7,29.29,South,180,3.5,3.5,43,0.00,CLR,,0.00,WeatherDisplay:10.37,2013-01-02 02:27:00,
2013-01-02 13:32:00,86.7,60.9,29.26,NE,45,3.5,3.5,42,0.00,CLR,,0.00,WeatherDisplay:10.37,2013-01-02 02:32:00,
2013-01-02 13:37:00,85.3,59.6,29.26,East,90,4.9,4.9,42,0.00,CLR,,0.00,WeatherDisplay:10.37,2013-01-02 02:37:00,
2013-01-02 13:42:00,83.3,57.8,29.26,NE,45,5.8,5.8,42,0.00,CLR,,0.00,WeatherDisplay:10.37,2013-01-02 02:42:00,
2013-01-02 13:47:00,84.4,59.4,29.26,ENE,68,5.8,5.8,43,0.00,CLR,,0.00,WeatherDisplay:10.37,2013-01-02 02:47:00,
2013-01-02 13:52:00,85.8,60.7,29.26,NNE,22,3.5,3.5,43,0.00,CLR,,0.00,WeatherDisplay:10.37,2013-01-02 02:52:00,
2013-01-02 13:57:00,85.6,59.9,29.26,NE,45,4.6,4.6,42,0.00,CLR,,0.00,WeatherDisplay:10.37,2013-01-02 02:57:00,
2013-01-02 14:02:00,83.5,58.0,29.26,ESE,112,3.5,3.5,42,0.00,CLR,,0.00,WeatherDisplay:10.37,2013-01-02 03:02:00,
2013-01-02 14:07:00,82.8,58.0,29.26,ENE,68,4.6,4.6,43,0.00,CLR,,0.00,WeatherDisplay:10.37,2013-01-02 03:07:00,
2013-01-02 14:12:00,83.1,58.3,29.26,East,90,4.6,4.6,43,0.00,CLR,,0.00,WeatherDisplay:10.37,2013-01-02 03:12:00,
2013-01-02 14:17:00,82.9,58.1,29.26,ESE,112,6.9,6.9,43,0.00,CLR,,0.00,WeatherDisplay:10.37,2013-01-02 03:17:00,
2013-01-02 14:22:00,81.9,58.4,29.26,East,90,6.9,6.9,45,0.00,CLR,,0.00,WeatherDisplay:10.37,2013-01-02 03:22:00,
2013-01-02 14:27:00,81.1,57.8,29.26,East,90,4.6,4.6,45,0.00,CLR,,0.00,WeatherDisplay:10.37,2013-01-02 03:27:00,
2013-01-02 14:32:00,80.8,58.1,29.29,NE,45,4.6,4.6,46,0.00,CLR,,0.00,WeatherDisplay:10.37,2013-01-02 03:32:00,
2013-01-02 14:37:00,81.5,58.7,29.29,NE,45,4.6,4.6,46,0.00,CLR,,0.00,WeatherDisplay:10.37,2013-01-02 03:37:00,
2013-01-02 14:42:00,81.7,58.9,29.29,NE,45,3.8,3.8,46,0.00,CLR,,0.00,WeatherDisplay:10.37,2013-01-02 03:42:00,
2013-01-02 14:47:00,81.7,58.9,29.26,NE,45,3.5,3.5,46,0.00,CLR,,0.00,WeatherDisplay:10.37,2013-01-02 03:47:00,
2013-01-02 14:52:00,81.7,58.9,29.26,ENE,68,4.6,4.6,46,0.00,CLR,,0.00,WeatherDisplay:10.37,2013-01-02 03:52:00,
2013-01-02 14:57:00,81.5,58.7,29.26,ESE,112,6.0,6.0,46,0.00,CLR,,0.00,WeatherDisplay:10.37,2013-01-02 03:57:00,
2013-01-02 15:02:00,81.1,58.4,29.26,NNE,22,4.6,4.6,46,0.00,CLR,,0.00,WeatherDisplay:10.37,2013-01-02 04:02:00,
2013-01-02 15:07:00,81.0,58.2,29.26,NE,45,2.4,2.4,46,0.00,CLR,,0.00,WeatherDisplay:10.37,2013-01-02 04:07:00,
2013-01-02 15:12:00,81.0,58.2,29.26,NE,45,5.8,5.8,46,0.00,CLR,,0.00,WeatherDisplay:10.37,2013-01-02 04:12:00,
2013-01-02 15:17:00,81.1,58.4,29.26,East,90,3.5,3.5,46,0.00,CLR,,0.00,WeatherDisplay:10.37,2013-01-02 04:17:00,
2013-01-02 15:22:00,80.1,58.0,29.26,East,90,6.9,6.9,47,0.00,CLR,,0.00,WeatherDisplay:10.37,2013-01-02 04:22:00,
2013-01-02 15:27:00,79.2,57.2,29.26,NNW,338,6.9,6.9,47,0.00,CLR,,0.00,WeatherDisplay:10.37,2013-01-02 04:27:00,
2013-01-02 15:32:00,79.3,57.9,29.26,East,90,3.5,3.5,48,0.00,CLR,,0.00,WeatherDisplay:10.37,2013-01-02 04:32:00,
2013-01-02 15:37:00,79.0,57.6,29.26,NE,45,4.6,4.6,48,0.00,CLR,,0.00,WeatherDisplay:10.37,2013-01-02 04:37:00,
2013-01-02 15:42:00,79.0,57.6,29.26,NE,45,2.3,2.3,48,0.00,CLR,,0.00,WeatherDisplay:10.37,2013-01-02 04:42:00,
2013-01-02 15:47:00,79.0,58.2,29.32,ESE,112,3.5,3.5,49,0.00,CLR,,0.00,WeatherDisplay:10.37,2013-01-02 04:47:00,
2013-01-02 15:52:00,79.2,58.4,29.32,NNE,22,5.9,5.9,49,0.00,CLR,,0.00,WeatherDisplay:10.37,2013-01-02 04:52:00,
2013-01-02 15:57:00,79.7,58.8,29.32,NE,45,3.5,3.5,49,0.00,CLR,,0.00,WeatherDisplay:10.37,2013-01-02 04:57:00,
2013-01-02 16:00:00,79.9,59.0,29.32,ENE,68,4.6,4.6,49,0.00,CLR,,0.00,WeatherDisplay:10.37,2013-01-02 05:00:00,
2013-01-02 16:05:00,79.7,58.3,29.29,SE,135,2.3,2.3,48,0.00,CLR,,0.00,WeatherDisplay:10.37,2013-01-02 05:05:00,
2013-01-02 16:11:00,80.4,58.9,29.29,SSW,202,6.0,6.0,48,0.00,CLR,,0.00,WeatherDisplay:10.37,2013-01-02 05:11:00,
2013-01-02 16:16:00,80.8,59.3,29.29,NNE,22,4.6,4.6,48,0.00,CLR,,0.00,WeatherDisplay:10.37,2013-01-02 05:16:00,
2013-01-02 16:21:00,80.1,58.6,29.29,ESE,112,5.4,5.4,48,0.00,CLR,,0.00,WeatherDisplay:10.37,2013-01-02 05:21:00,
2013-01-02 16:26:00,80.1,58.6,29.29,East,90,4.6,4.6,48,0.00,CLR,,0.00,WeatherDisplay:10.37,2013-01-02 05:26:00,
2013-01-02 16:31:00,80.2,58.8,29.29,East,90,2.3,2.3,48,0.00,CLR,,0.00,WeatherDisplay:10.37,2013-01-02 05:31:00,
2013-01-02 16:36:00,80.6,58.5,29.29,East,90,2.3,2.3,47,0.00,CLR,,0.00,WeatherDisplay:10.37,2013-01-02 05:36:00,
2013-01-02 16:41:00,80.6,58.5,29.29,SSE,158,0.0,0.0,47,0.00,CLR,,0.00,WeatherDisplay:10.37,2013-01-02 05:41:00,
2013-01-02 16:46:00,81.5,59.3,29.29,East,90,4.0,4.0,47,0.00,CLR,,0.00,WeatherDisplay:10.37,2013-01-02 05:46:00,
2013-01-02 16:51:00,80.2,58.2,29.32,ESE,112,3.6,3.6,47,0.00,CLR,,0.00,WeatherDisplay:10.37,2013-01-02 05:51:00,
2013-01-02 16:56:00,79.3,57.4,29.32,ESE,112,6.9,6.9,47,0.00,CLR,,0.00,WeatherDisplay:10.37,2013-01-02 05:56:00,
2013-01-02 17:01:00,79.0,57.6,29.32,ENE,68,5.8,5.8,48,0.00,CLR,,0.00,WeatherDisplay:10.37,2013-01-02 06:01:00,
2013-01-02 17:06:00,78.3,57.5,29.32,ENE,68,5.8,5.8,49,0.00,CLR,,0.00,WeatherDisplay:10.37,2013-01-02 06:06:00,
2013-01-02 17:11:00,77.4,56.7,29.32,ESE,112,8.1,8.1,49,0.00,CLR,,0.00,WeatherDisplay:10.37,2013-01-02 06:11:00,
2013-01-02 17:16:00,77.2,56.5,29.32,East,90,3.5,3.5,49,0.00,CLR,,0.00,WeatherDisplay:10.37,2013-01-02 06:16:00,
2013-01-02 17:21:00,77.2,57.1,29.32,NE,45,2.3,2.3,50,0.00,CLR,,0.00,WeatherDisplay:10.37,2013-01-02 06:21:00,
2013-01-02 17:26:00,77.2,57.1,29.32,ESE,112,3.5,3.5,50,0.00,CLR,,0.00,WeatherDisplay:10.37,2013-01-02 06:26:00,
2013-01-02 17:31:00,76.6,57.2,29.32,ESE,112,5.8,5.8,51,0.00,CLR,,0.00,WeatherDisplay:10.37,2013-01-02 06:31:00,
2013-01-02 17:36:00,76.6,57.7,29.32,North,0,3.5,3.5,52,0.00,CLR,,0.00,WeatherDisplay:10.37,2013-01-02 06:36:00,
2013-01-02 17:41:00,76.3,57.4,29.32,NE,45,4.0,4.0,52,0.00,CLR,,0.00,WeatherDisplay:10.37,2013-01-02 06:41:00,
2013-01-02 17:46:00,75.9,57.0,29.32,NNE,22,4.6,4.6,52,0.00,CLR,,0.00,WeatherDisplay:10.37,2013-01-02 06:46:00,
2013-01-02 17:51:00,75.2,56.9,29.32,SE,135,2.9,0.0,53,0.00,CLR,,0.00,WeatherDisplay:10.37,2013-01-02 06:51:00,
2013-01-02 17:56:00,74.7,56.9,29.32,NE,45,4.6,4.6,54,0.00,CLR,,0.00,WeatherDisplay:10.37,2013-01-02 06:56:00,
2013-01-02 18:01:00,73.9,56.8,29.32,SE,135,5.8,5.8,55,0.00,CLR,,0.00,WeatherDisplay:10.37,2013-01-02 07:01:00,
2013-01-02 18:06:00,73.8,56.6,29.35,ENE,68,0.0,0.0,55,0.00,CLR,,0.00,WeatherDisplay:10.37,2013-01-02 07:06:00,
2013-01-02 18:11:00,73.9,56.8,29.35,ESE,112,1.2,1.2,55,0.00,CLR,,0.00,WeatherDisplay:10.37,2013-01-02 07:11:00,
2013-01-02 18:16:00,73.9,56.8,29.35,SSE,158,3.5,3.5,55,0.00,CLR,,0.00,WeatherDisplay:10.37,2013-01-02 07:16:00,
2013-01-02 18:21:00,73.2,56.6,29.35,NE,45,2.3,2.3,56,0.00,CLR,,0.00,WeatherDisplay:10.37,2013-01-02 07:21:00,
2013-01-02 18:26:00,73.0,56.4,29.35,WSW,248,2.9,2.9,56,0.00,CLR,,0.00,WeatherDisplay:10.37,2013-01-02 07:26:00,
2013-01-02 18:31:00,73.2,56.6,29.35,NNE,22,2.3,2.3,56,0.00,CLR,,0.00,WeatherDisplay:10.37,2013-01-02 07:31:00,
2013-01-02 18:36:00,72.9,56.2,29.38,North,0,2.2,0.0,56,0.00,CLR,,0.00,WeatherDisplay:10.37,2013-01-02 07:36:00,
2013-01-02 18:41:00,72.9,56.2,29.38,North,0,2.2,0.0,56,0.00,CLR,,0.00,WeatherDisplay:10.37,2013-01-02 07:41:00,
2013-01-02 18:46:00,72.5,56.4,29.38,NE,45,5.6,5.6,57,0.00,CLR,,0.00,WeatherDisplay:10.37,2013-01-02 07:46:00,
2013-01-02 18:51:00,72.1,56.1,29.38,NE,45,3.5,3.5,57,0.00,CLR,,0.00,WeatherDisplay:10.37,2013-01-02 07:51:00,
2013-01-02 18:56:00,72.0,55.9,29.38,WNW,292,0.0,0.0,57,0.00,CLR,,0.00,WeatherDisplay:10.37,2013-01-02 07:56:00,
2013-01-02 19:01:00,72.1,56.5,29.38,NNE,22,2.9,0.0,58,0.00,CLR,,0.00,WeatherDisplay:10.37,2013-01-02 08:01:00,
2013-01-02 19:06:00,71.8,56.2,29.38,NE,45,5.8,0.0,58,0.00,CLR,,0.00,WeatherDisplay:10.37,2013-01-02 08:06:00,
2013-01-02 19:11:00,71.4,55.9,29.38,East,90,1.2,0.0,58,0.00,CLR,,0.00,WeatherDisplay:10.37,2013-01-02 08:11:00,
2013-01-02 19:16:00,71.4,56.3,29.38,South,180,2.3,2.3,59,0.00,CLR,,0.00,WeatherDisplay:10.37,2013-01-02 08:16:00,
2013-01-02 19:21:00,71.2,56.2,29.38,ENE,68,3.5,3.5,59,0.00,CLR,,0.00,WeatherDisplay:10.37,2013-01-02 08:21:00,
2013-01-02 19:26:00,70.9,56.3,29.38,NNW,338,3.8,3.8,60,0.00,CLR,,0.00,WeatherDisplay:10.37,2013-01-02 08:26:00,
2013-01-02 19:31:00,70.7,56.1,29.38,NNE,22,3.5,3.5,60,0.00,CLR,,0.00,WeatherDisplay:10.37,2013-01-02 08:31:00,
2013-01-02 19:36:00,70.7,56.6,29.41,NE,45,2.3,0.0,61,0.00,CLR,,0.00,WeatherDisplay:10.37,2013-01-02 08:36:00,
2013-01-02 19:41:00,70.7,56.6,29.41,NNE,22,0.0,0.0,61,0.00,CLR,,0.00,WeatherDisplay:10.37,2013-01-02 08:41:00,
2013-01-02 19:46:00,70.7,56.6,29.41,ENE,68,2.3,2.3,61,0.00,CLR,,0.00,WeatherDisplay:10.37,2013-01-02 08:46:00,
2013-01-02 19:51:00,70.7,56.6,29.44,ENE,68,0.0,0.0,61,0.00,CLR,,0.00,WeatherDisplay:10.37,2013-01-02 08:51:00,
2013-01-02 19:56:00,70.9,56.8,29.44,NNW,338,0.0,0.0,61,0.00,CLR,,0.00,WeatherDisplay:10.37,2013-01-02 08:56:00,
2013-01-02 20:01:00,70.9,56.3,29.44,ESE,112,1.4,0.0,60,0.00,CLR,,0.00,WeatherDisplay:10.37,2013-01-02 09:01:00,
2013-01-02 20:06:00,70.7,56.6,29.44,NE,45,3.5,3.5,61,0.00,CLR,,0.00,WeatherDisplay:10.37,2013-01-02 09:06:00,
2013-01-02 20:11:00,70.5,56.4,29.44,NE,45,2.3,2.3,61,0.00,CLR,,0.00,WeatherDisplay:10.37,2013-01-02 09:11:00,
2013-01-02 20:16:00,70.3,56.2,29.44,NE,45,0.0,0.0,61,0.00,CLR,,0.00,WeatherDisplay:10.37,2013-01-02 09:16:00,
2013-01-02 20:21:00,70.2,56.1,29.44,NNE,22,0.0,0.0,61,0.00,CLR,,0.00,WeatherDisplay:10.37,2013-01-02 09:21:00,
2013-01-02 20:26:00,70.2,56.1,29.44,SE,135,0.0,0.0,61,0.00,CLR,,0.00,WeatherDisplay:10.37,2013-01-02 09:26:00,
2013-01-02 20:31:00,70.2,56.1,29.44,NNE,22,0.0,0.0,61,0.00,CLR,,0.00,WeatherDisplay:10.37,2013-01-02 09:31:00,
2013-01-02 20:36:00,70.3,56.2,29.41,ENE,68,0.0,0.0,61,0.00,CLR,,0.00,WeatherDisplay:10.37,2013-01-02 09:36:00,
2013-01-02 20:41:00,70.3,56.2,29.41,NE,45,0.0,0.0,61,0.00,CLR,,0.00,WeatherDisplay:10.37,2013-01-02 09:41:00,
2013-01-02 20:46:00,70.2,56.1,29.41,NE,45,0.0,0.0,61,0.00,CLR,,0.00,WeatherDisplay:10.37,2013-01-02 09:46:00,
2013-01-02 20:51:00,70.0,55.9,29.44,NE,45,1.2,1.2,61,0.00,CLR,,0.00,WeatherDisplay:10.37,2013-01-02 09:51:00,
2013-01-02 20:56:00,70.0,55.9,29.44,East,90,0.0,0.0,61,0.00,CLR,,0.00,WeatherDisplay:10.37,2013-01-02 09:56:00,
2013-01-02 21:01:00,70.0,55.9,29.44,SE,135,0.0,0.0,61,0.00,CLR,,0.00,WeatherDisplay:10.37,2013-01-02 10:01:00,
2013-01-02 21:06:00,70.3,56.2,29.47,NE,45,0.0,0.0,61,0.00,CLR,,0.00,WeatherDisplay:10.37,2013-01-02 10:06:00,
2013-01-02 21:11:00,70.3,56.2,29.47,NE,45,0.0,0.0,61,0.00,CLR,,0.00,WeatherDisplay:10.37,2013-01-02 10:11:00,
2013-01-02 21:16:00,70.3,56.2,29.47,NNE,22,0.0,0.0,61,0.00,CLR,,0.00,WeatherDisplay:10.37,2013-01-02 10:16:00,
2013-01-02 21:21:00,70.2,56.1,29.47,East,90,0.0,0.0,61,0.00,CLR,,0.00,WeatherDisplay:10.37,2013-01-02 10:21:00,
2013-01-02 21:26:00,70.2,56.5,29.47,NE,45,0.0,0.0,62,0.00,CLR,,0.00,WeatherDisplay:10.37,2013-01-02 10:26:00,
2013-01-02 21:31:00,70.2,56.5,29.47,ESE,112,2.3,2.3,62,0.00,CLR,,0.00,WeatherDisplay:10.37,2013-01-02 10:31:00,
2013-01-02 21:36:00,69.8,56.2,29.47,SE,135,2.3,2.3,62,0.00,CLR,,0.00,WeatherDisplay:10.37,2013-01-02 10:36:00,
2013-01-02 21:41:00,69.6,56.5,29.47,NW,315,0.0,0.0,63,0.00,CLR,,0.00,WeatherDisplay:10.37,2013-01-02 10:41:00,
2013-01-02 21:46:00,69.3,56.6,29.47,ESE,112,0.0,0.0,64,0.00,CLR,,0.00,WeatherDisplay:10.37,2013-01-02 10:46:00,
2013-01-02 21:51:00,68.9,56.2,29.47,SE,135,5.8,5.8,64,0.00,CLR,,0.00,WeatherDisplay:10.37,2013-01-02 10:51:00,
2013-01-02 21:56:00,68.9,56.2,29.47,SE,135,4.0,4.0,64,0.00,CLR,,0.00,WeatherDisplay:10.37,2013-01-02 10:56:00,
2013-01-02 22:01:00,68.4,56.1,29.47,East,90,2.3,2.3,65,0.00,CLR,,0.00,WeatherDisplay:10.37,2013-01-02 11:01:00,
2013-01-02 22:06:00,68.0,56.2,29.50,NNE,22,0.0,0.0,66,0.00,CLR,,0.00,WeatherDisplay:10.37,2013-01-02 11:06:00,
2013-01-02 22:11:00,68.4,56.6,29.50,WNW,292,0.0,0.0,66,0.00,CLR,,0.00,WeatherDisplay:10.37,2013-01-02 11:11:00,
2013-01-02 22:16:00,68.4,56.6,29.50,NE,45,0.0,0.0,66,0.00,CLR,,0.00,WeatherDisplay:10.37,2013-01-02 11:16:00,
2013-01-02 22:21:00,68.2,56.8,29.50,NNE,22,0.0,0.0,67,0.00,CLR,,0.00,WeatherDisplay:10.37,2013-01-02 11:21:00,
2013-01-02 22:26:00,68.0,56.2,29.50,NW,315,0.0,0.0,66,0.00,CLR,,0.00,WeatherDisplay:10.37,2013-01-02 11:26:00,
2013-01-02 22:31:00,68.2,56.4,29.50,NE,45,0.0,0.0,66,0.00,CLR,,0.00,WeatherDisplay:10.37,2013-01-02 11:31:00,
2013-01-02 22:36:00,68.0,56.6,29.50,NNE,22,0.0,0.0,67,0.00,CLR,,0.00,WeatherDisplay:10.37,2013-01-02 11:36:00,
2013-01-02 22:41:00,68.2,56.4,29.50,NNE,22,0.0,0.0,66,0.00,CLR,,0.00,WeatherDisplay:10.37,2013-01-02 11:41:00,
2013-01-02 22:46:00,68.2,56.8,29.50,NE,45,0.0,0.0,67,0.00,CLR,,0.00,WeatherDisplay:10.37,2013-01-02 11:46:00,
2013-01-02 22:51:00,68.0,56.6,29.50,ESE,112,0.0,0.0,67,0.00,CLR,,0.00,WeatherDisplay:10.37,2013-01-02 11:51:00,
2013-01-02 22:56:00,68.2,56.8,29.50,East,90,0.0,0.0,67,0.00,CLR,,0.00,WeatherDisplay:10.37,2013-01-02 11:56:00,
2013-01-02 23:01:00,68.4,57.0,29.50,East,90,0.0,0.0,67,0.00,CLR,,0.00,WeatherDisplay:10.37,2013-01-02 12:01:00,
2013-01-02 23:06:00,68.5,57.1,29.50,ENE,68,0.0,0.0,67,0.00,CLR,,0.00,WeatherDisplay:10.37,2013-01-02 12:06:00,
2013-01-02 23:11:00,68.5,57.1,29.50,NE,45,0.0,0.0,67,0.00,CLR,,0.00,WeatherDisplay:10.37,2013-01-02 12:11:00,
2013-01-02 23:16:00,68.5,56.7,29.50,NW,315,0.0,0.0,66,0.00,CLR,,0.00,WeatherDisplay:10.37,2013-01-02 12:16:00,
2013-01-02 23:21:00,68.7,56.9,29.50,SSW,202,0.0,0.0,66,0.00,CLR,,0.00,WeatherDisplay:10.37,2013-01-02 12:21:00,
2013-01-02 23:26:00,68.7,56.9,29.50,West,270,0.0,0.0,66,0.00,CLR,,0.00,WeatherDisplay:10.37,2013-01-02 12:26:00,
2013-01-02 23:31:00,68.5,56.7,29.50,ESE,112,0.0,0.0,66,0.00,CLR,,0.00,WeatherDisplay:10.37,2013-01-02 12:31:00,
2013-01-02 23:36:00,68.4,56.6,29.50,WSW,248,0.0,0.0,66,0.00,CLR,,0.00,WeatherDisplay:10.37,2013-01-02 12:36:00,
2013-01-02 23:41:00,68.4,56.6,29.50,NNE,22,0.0,0.0,66,0.00,CLR,,0.00,WeatherDisplay:10.37,2013-01-02 12:41:00,
2013-01-02 23:46:00,68.4,56.6,29.50,ENE,68,0.0,0.0,66,0.00,CLR,,0.00,WeatherDisplay:10.37,2013-01-02 12:46:00,
2013-01-02 23:51:00,68.2,56.4,29.50,NE,45,0.0,0.0,66,0.00,CLR,,0.00,WeatherDisplay:10.37,2013-01-02 12:51:00,
2013-01-02 23:56:00,68.4,56.6,29.50,SE,135,0.0,0.0,66,0.00,CLR,,0.00,WeatherDisplay:10.37,2013-01-02 12:56:00,